HAR weather

Arena Ciudad de Mexico Helipad II
Azcapotzalco, Ciudad de México, Mexico

Public forecast

Using degrees Celsius for public forecast. Weather courtesy of forecast.io.

Closest aviation weather report (METAR) to Arena Ciudad de Mexico Helipad II

Closest report is Licenciado Benito Juarez International Airport, 6.8 nm (12.6 km) ESE. Retrieved 2019/12/07 18:32 UTC (3 minutes ago):

MMMX 071832Z 05005KT 6SM SKC 18/M02 A3046 NOSIG RMK HZY

Closest aviation forecast (TAF) to Arena Ciudad de Mexico Helipad II

Closest forecast is Licenciado Benito Juarez International Airport, 6.8 nm (12.6 km) ESE. Retrieved 2019/12/07 18:12 UTC (23 minutes ago):

TAF MMMX 071708Z 0718/0824 07005KT 6SM HZ SKC TX23/0722Z TN05/0813Z BECMG 0720/0721 03010KT FM080200 03005KT P6SM SKC BECMG 0805/0806 00000KT FM081200 00000KT 6SM HZ SCT020 FM081600 03005KT 6SM HZ SKC BECMG 0820/0821 03010KT